D/T METAR WX W/DIR W/SPE G/SPE TEMP DEWP
6/06/20 12:20 EGAC 061120Z AUTO 32013KT 9999 BKN018/// 12/09 Q0999 NW (320°) 15.0mph 12°C 9°C
6/06/20 11:50 EGAC 061050Z AUTO 33012KT 9999 BKN017/// OVC031/// 11/09 Q0999 NNW (330°) 13.8mph 11°C 9°C
6/06/20 11:20 EGAC 061020Z AUTO 33013KT 9999 BKN018/// OVC023/// 11/08 Q0999 NNW (330°) 15.0mph 11°C 8°C
6/06/20 10:50 EGAC 060950Z AUTO 32012KT 290V360 9999 -RA OVC018/// 10/08 Q0999 -RA NW (320°) 13.8mph 10°C 8°C
6/06/20 09:50 EGAC 060850Z AUTO 32011G21KT 9999 -RA BKN017/// OVC048/// 10/08 Q0998 -RA NW (320°) 12.7mph 24.2mph 10°C 8°C
6/06/20 09:20 EGAC 060820Z AUTO 33015KT 9999 -RA BKN016/// BKN020/// 11/08 Q0997 -RA NNW (330°) 17.3mph 11°C 8°C
6/06/20 08:50 EGAC 060750Z AUTO 33012G22KT 290V360 9999 -RA OVC015/// 11/08 Q0997 -RA NNW (330°) 13.8mph 25.3mph 11°C 8°C
6/06/20 08:20 EGAC 060720Z AUTO 33014G24KT 290V360 9999 BKN017/// OVC026/// 10/08 Q0997 NNW (330°) 16.1mph 27.6mph 10°C 8°C
6/06/20 07:50 EGAC 060650Z AUTO 32013KT 9999 -RA OVC013/// 10/08 Q0996 -RA NW (320°) 15.0mph 10°C 8°C
6/06/20 06:50 EGAC 060550Z AUTO 32012KT 8000 -RA BKN015/// OVC026/// 10/08 Q0996 -RA NW (320°) 13.8mph 10°C 8°C
6/06/20 06:20 EGAC 060520Z AUTO 32013G23KT 9999 -RA FEW023/// SCT027/// OVC048/// 10/08 Q0996 -RA NW (320°) 15.0mph 26.5mph 10°C 8°C
6/06/20 05:50 EGAC 060450Z AUTO 32015KT 9999 -RA FEW035/// OVC046/// 10/08 Q0995 -RA NW (320°) 17.3mph 10°C 8°C
6/06/20 04:50 EGAC 060350Z AUTO 31011KT 280V340 9999 -RA BKN015/// OVC038/// 10/08 Q0995 -RA NW (310°) 12.7mph 10°C 8°C
6/06/20 04:20 EGAC 060320Z AUTO 30014KT 260V330 6000 -RA SCT015/// BKN019/// OVC033/// 09/08 Q0995 -RA WNW (300°) 16.1mph 9°C 8°C
6/06/20 03:50 EGAC 060250Z AUTO 28013G24KT 250V320 6000 -RA BKN016/// BKN021/// OVC034/// 08/07 Q0995 -RA W (280°) 15.0mph 27.6mph 8°C 7°C
6/06/20 03:20 EGAC 060220Z AUTO 29015KT 250V320 9999 -RA SCT016/// BKN021/// BKN037/// 08/07 Q0995 -RA WNW (290°) 17.3mph 8°C 7°C
6/06/20 02:50 EGAC 060150Z AUTO 29015G27KT 9999 -RA BKN017/// BKN023/// BKN032/// 08/06 Q0996 -RA WNW (290°) 17.3mph 31.1mph 8°C 6°C
6/06/20 02:20 EGAC 060120Z AUTO 29015G27KT 9999 SCT017/// BKN023/// BKN032/// 08/06 Q0996 WNW (290°) 17.3mph 31.1mph 8°C 6°C
6/06/20 01:50 EGAC 060050Z AUTO 29013KT 250V350 9999 -RA SCT019/// BKN028/// 08/05 Q0997 -RA WNW (290°) 15.0mph 8°C 5°C
6/06/20 01:20 EGAC 060020Z AUTO 29014KT 250V320 9999 -RA SCT020/// BKN025/// BKN030/// 08/05 Q0997 -RA WNW (290°) 16.1mph 8°C 5°C
6/06/20 00:50 EGAC 052350Z AUTO 29016G28KT 250V320 9999 -RA FEW021/// BKN027/// BKN038/// 07/05 Q0997 -RA WNW (290°) 18.4mph 32.2mph 7°C 5°C
6/06/20 00:20 EGAC 052320Z AUTO 29012KT 240V340 9999 -RA SCT028/// SCT042/// 07/04 Q0997 -RA WNW (290°) 13.8mph 7°C 4°C
5/06/20 23:50 EGAC 052250Z AUTO 29014G24KT 240V340 9999 -RA FEW027/// SCT039/// 07/04 Q0998 -RA WNW (290°) 16.1mph 27.6mph 7°C 4°C
5/06/20 22:50 EGAC 052150Z AUTO 30012G24KT 230V050 9999 FEW031/// 07/04 Q0998 RERA WNW (300°) 13.8mph 27.6mph 7°C 4°C
5/06/20 22:20 EGAC 052120Z AUTO 30018G28KT 260V320 9999 -RA SCT028/// SCT039/// 07/04 Q0998 RERA -RA WNW (300°) 20.7mph 32.2mph 7°C 4°C
5/06/20 21:50 EGAC 052050Z AUTO 30014G24KT 260V320 9999 -RA SCT022/// SCT032/// BKN040/// 07/04 Q0999 RERA -RA WNW (300°) 16.1mph 27.6mph 7°C 4°C
5/06/20 21:20 EGAC 052020Z AUTO 30014G25KT 270V330 9999 -RA FEW023/// SCT029/// BKN035/// 08/04 Q0999 RERA -RA WNW (300°) 16.1mph 28.8mph 8°C 4°C
5/06/20 20:20 EGAC 051920Z AUTO 31011KT 270V340 9999 SCT031/// SCT039/// 08/03 Q0999 NW (310°) 12.7mph 8°C 3°C
5/06/20 19:50 EGAC 051850Z AUTO 31014KT 9999 FEW021/// SCT039/// 08/04 Q0999 RERA NW (310°) 16.1mph 8°C 4°C
5/06/20 19:20 EGAC 051820Z AUTO 31016G27KT 260V340 9999 FEW045/// 10/02 Q0999 NW (310°) 18.4mph 31.1mph 10°C 2°C
5/06/20 18:20 EGAC 051720Z AUTO 33011KT 290V010 9999 FEW032/// BKN040/// 10/04 Q0999 RERA NNW (330°) 12.7mph 10°C 4°C
5/06/20 17:50 EGAC 051650Z AUTO 32017KT 260V350 9999 FEW048/// 11/01 Q0999 NW (320°) 19.6mph 11°C 1°C
5/06/20 17:20 EGAC 051620Z AUTO 32019G32KT 290V350 9999 FEW042/// 11/02 Q0999 NW (320°) 21.9mph 36.8mph 11°C 2°C
5/06/20 16:50 EGAC 051550Z AUTO 32016G26KT 280V350 9999 SCT048/// 12/02 Q0999 NW (320°) 18.4mph 29.9mph 12°C 2°C
5/06/20 16:20 EGAC 051520Z AUTO 31019KT 280V010 9999 NCD 13/01 Q0999 NW (310°) 21.9mph 13°C 1°C
5/06/20 15:20 EGAC 051420Z AUTO 31014G24KT 9999 FEW043/// 11/03 Q0999 NW (310°) 16.1mph 27.6mph 11°C 3°C
5/06/20 14:50 EGAC 051350Z AUTO 33015G25KT 9999 FEW041/// SCT048/// 13/03 Q0999 NNW (330°) 17.3mph 28.8mph 13°C 3°C
5/06/20 14:20 EGAC 051320Z AUTO 32015KT 9999 FEW038/// 13/03 Q0999 NW (320°) 17.3mph 13°C 3°C
5/06/20 13:50 EGAC 051250Z AUTO 31018G28KT 9999 NCD 12/02 Q0999 NW (310°) 20.7mph 32.2mph 12°C 2°C
5/06/20 13:20 EGAC 051220Z AUTO 31015G25KT 9999 FEW037/// SCT044/// 12/03 Q0999 NW (310°) 17.3mph 28.8mph 12°C 3°C
5/06/20 12:50 EGAC 051150Z AUTO 31016G28KT 9999 FEW049/// 10/02 Q1000 RERA NW (310°) 18.4mph 32.2mph 10°C 2°C
5/06/20 12:20 EGAC 051120Z AUTO 33020G32KT 9999 -RA FEW037/// SCT046/// 10/04 Q1000 -RA NNW (330°) 23.0mph 36.8mph 10°C 4°C
5/06/20 11:50 EGAC 051050Z AUTO 33016G29KT 290V010 9999 FEW047/// 12/03 Q0999 NNW (330°) 18.4mph 33.4mph 12°C 3°C
5/06/20 11:20 EGAC 051020Z AUTO 32015G27KT 280V350 4900 -RA FEW046/// 09/03 Q1000 -RA NW (320°) 17.3mph 31.1mph 9°C 3°C
5/06/20 10:20 EGAC 050920Z AUTO 31010KT 280V350 9999 FEW043/// 11/04 Q1000 NW (310°) 11.5mph 11°C 4°C
5/06/20 09:50 EGAC 050850Z AUTO 33017G29KT 300V010 9999 SCT039/// 11/03 Q1000 NNW (330°) 19.6mph 33.4mph 11°C 3°C
5/06/20 08:50 EGAC 050750Z AUTO 32012KT 9999 FEW029/// SCT040/// 10/05 Q0999 NW (320°) 13.8mph 10°C 5°C
5/06/20 08:20 EGAC 050720Z AUTO 32014KT 290V360 9999 NCD 11/04 Q0999 NW (320°) 16.1mph 11°C 4°C
5/06/20 07:50 EGAC 050650Z AUTO 33010KT 300V010 9999 FEW026/// 09/04 Q0999 NNW (330°) 11.5mph 9°C 4°C
5/06/20 07:20 EGAC 050620Z AUTO 31008KT 260V350 9999 NCD 09/04 Q1000 NW (310°) 9.2mph 9°C 4°C
5/06/20 06:50 EGAC 050550Z AUTO 31006KT 260V360 9999 NCD 08/04 Q1000 NW (310°) 6.9mph 8°C 4°C
5/06/20 05:50 EGAC 050450Z AUTO 32010KT 9999 NCD 08/04 Q0999 NW (320°) 11.5mph 8°C 4°C
5/06/20 05:20 EGAC 050420Z AUTO 33007KT 290V010 9999 NCD 08/04 Q0999 NNW (330°) 8.1mph 8°C 4°C
5/06/20 04:50 EGAC 050350Z AUTO 33005KT 300V010 9999 FEW033/// 08/04 Q0999 NNW (330°) 5.8mph 8°C 4°C
5/06/20 04:20 EGAC 050320Z AUTO 31005KT 270V010 9999 FEW023/// 08/05 Q1000 NW (310°) 5.8mph 8°C 5°C
5/06/20 03:50 EGAC 050250Z AUTO VRB02KT 9999 NCD 08/05 Q1000 N (0°) 2.3mph 8°C 5°C
5/06/20 03:20 EGAC 050220Z AUTO VRB04KT 9999 SCT023/// 08/04 Q1000 N (0°) 4.6mph 8°C 4°C
5/06/20 02:50 EGAC 050150Z AUTO 34004KT 300V040 9999 FEW036/// 08/05 Q1000 NNW (340°) 4.6mph 8°C 5°C
5/06/20 02:20 EGAC 050120Z AUTO VRB04KT 9999 SCT021/// SCT026/// BKN032/// 09/05 Q1000 N (0°) 4.6mph 9°C 5°C
5/06/20 01:20 EGAC 050020Z AUTO 34006KT 300V020 9999 FEW027/// 09/05 Q1001 NNW (340°) 6.9mph 9°C 5°C
5/06/20 00:50 EGAC 042350Z AUTO 33009KT 290V360 9999 NCD 09/05 Q1001 NNW (330°) 10.4mph 9°C 5°C
5/06/20 00:20 EGAC 042320Z AUTO 34009KT 310V030 9999 NCD 10/05 Q1001 NNW (340°) 10.4mph 10°C 5°C
4/06/20 23:50 EGAC 042250Z AUTO 33008KT 280V010 9999 NCD 10/05 Q1001 NNW (330°) 9.2mph 10°C 5°C
4/06/20 23:20 EGAC 042220Z AUTO 33008KT 300V010 9999 OVC048/// 10/06 Q1001 NNW (330°) 9.2mph 10°C 6°C
4/06/20 22:50 EGAC 042150Z AUTO 32009KT 300V020 9999 BKN045/// 10/06 Q1001 NW (320°) 10.4mph 10°C 6°C
4/06/20 22:20 EGAC 042120Z AUTO 31012KT 9999 BKN044/// 10/06 Q1001 NW (310°) 13.8mph 10°C 6°C
4/06/20 21:50 EGAC 042050Z AUTO 32013KT 9999 FEW028/// BKN039/// 10/05 Q1001 NW (320°) 15.0mph 10°C 5°C
4/06/20 21:20 EGAC 042020Z AUTO 31011KT 290V010 9999 FEW030/// SCT039/// 11/05 Q1001 NW (310°) 12.7mph 11°C 5°C
4/06/20 20:50 EGAC 041950Z AUTO 31012KT 290V350 9999 BKN038/// 11/06 Q1001 NW (310°) 13.8mph 11°C 6°C
4/06/20 20:20 EGAC 041920Z AUTO 33011KT 290V360 9999 FEW029/// BKN036/// 11/06 Q1001 NNW (330°) 12.7mph 11°C 6°C
4/06/20 19:50 EGAC 041850Z AUTO 33010KT 300V360 9999 SCT030/// BKN036/// 11/05 Q1001 NNW (330°) 11.5mph 11°C 5°C
4/06/20 19:20 EGAC 041820Z AUTO 33010KT 9999 BKN032/// 12/06 Q1001 NNW (330°) 11.5mph 12°C 6°C
4/06/20 18:50 EGAC 041750Z AUTO 32009KT 280V010 9999 FEW028/// BKN036/// 12/06 Q1001 NW (320°) 10.4mph 12°C 6°C
4/06/20 18:20 EGAC 041720Z AUTO 33013KT 9999 SCT025/// BKN030/// BKN038/// 12/07 Q1002 NNW (330°) 15.0mph 12°C 7°C
4/06/20 17:50 EGAC 041650Z AUTO 33009KT 300V010 9999 SCT025/// BKN035/// 13/07 Q1002 NNW (330°) 10.4mph 13°C 7°C
4/06/20 16:50 EGAC 041550Z AUTO 34007KT 300V020 9999 BKN024/// BKN034/// OVC043/// 13/07 Q1002 NNW (340°) 8.1mph 13°C 7°C
4/06/20 16:20 EGAC 041520Z AUTO 33012KT 300V360 9999 BKN028/// OVC041/// 13/07 Q1002 NNW (330°) 13.8mph 13°C 7°C
4/06/20 15:50 EGAC 041450Z AUTO 33010KT 300V360 9999 BKN027/// BKN032/// OVC043/// 14/07 Q1002 NNW (330°) 11.5mph 14°C 7°C
4/06/20 14:50 EGAC 041350Z AUTO 33009KT 9999 FEW029/// BKN033/// 14/08 Q1002 NNW (330°) 10.4mph 14°C 8°C
4/06/20 14:20 EGAC 041320Z AUTO 35007KT 320V030 9999 FEW029/// SCT037/// 14/08 Q1003 N (350°) 8.1mph 14°C 8°C
4/06/20 13:20 EGAC 041220Z AUTO 33009KT 9999 FEW024/// SCT031/// BKN044/// 14/09 Q1003 NNW (330°) 10.4mph 14°C 9°C
4/06/20 12:50 EGAC 041150Z AUTO 30007KT 260V340 9999 FEW036/// SCT043/// 13/09 Q1003 WNW (300°) 8.1mph 13°C 9°C
4/06/20 12:20 EGAC 041120Z AUTO 31006KT 260V350 9999 SCT018/// SCT028/// BKN037/// 12/10 Q1004 RERA NW (310°) 6.9mph 12°C 10°C
4/06/20 11:50 EGAC 041050Z 32005KT 260V350 9999 FEW019 SCT028 BKN042 12/10 Q1004 RERA NW (320°) 5.8mph 12°C 10°C
4/06/20 11:20 EGAC 041020Z 27005KT 220V320 9999 6000N -RA SCT016 BKN023 BKN030 13/09 Q1004 RERA -RA W (270°) 5.8mph 13°C 9°C
4/06/20 10:20 EGAC 040920Z AUTO 31007KT 280V360 9999 SCT016/// BKN025/// BKN036/// 12/08 Q1005 NW (310°) 8.1mph 12°C 8°C
4/06/20 09:50 EGAC 040850Z AUTO 32006KT 270V360 9999 FEW014/// SCT026/// BKN039/// 12/08 Q1005 NW (320°) 6.9mph 12°C 8°C
4/06/20 09:20 EGAC 040820Z AUTO 29006KT 9999 BKN011/// BKN019/// OVC035/// 11/08 Q1006 WNW (290°) 6.9mph 11°C 8°C
4/06/20 08:50 EGAC 040750Z AUTO 29006KT 240V330 9999 FEW012/// SCT018/// BKN026/// 11/09 Q1006 WNW (290°) 6.9mph 11°C 9°C
4/06/20 08:20 EGAC 040720Z AUTO 29006KT 260V320 9999 SCT016/// BKN021/// BKN031/// 10/08 Q1007 WNW (290°) 6.9mph 10°C 8°C
4/06/20 07:50 EGAC 040650Z AUTO 30006KT 260V330 9999 SCT012/// BKN022/// BKN028/// 10/08 Q1007 WNW (300°) 6.9mph 10°C 8°C
4/06/20 07:20 EGAC 040620Z AUTO 30004KT 250V350 9999 SCT010/// OVC016/// 10/08 Q1007 WNW (300°) 4.6mph 10°C 8°C
4/06/20 06:20 EGAC 040520Z AUTO 31006KT 4800 -DZ SCT012/// OVC020/// 10/08 Q1008 -DZ NW (310°) 6.9mph 10°C 8°C
4/06/20 05:50 EGAC 040450Z AUTO 30008KT 260V320 9999 BKN022/// OVC031/// 10/07 Q1008 WNW (300°) 9.2mph 10°C 7°C
4/06/20 04:50 EGAC 040350Z AUTO 30007KT 270V330 9999 BKN045/// 10/07 Q1009 WNW (300°) 8.1mph 10°C 7°C
4/06/20 04:20 EGAC 040320Z AUTO 30009KT 9999 NCD 10/06 Q1009 WNW (300°) 10.4mph 10°C 6°C